sensor_id;sensor_type;location;lat;lon;timestamp;temperature;humidity
8910;DHT22;4490;49.072;8.804;2023-09-19T00:00:30;18.10;99.90
8910;DHT22;4490;49.072;8.804;2023-09-19T00:02:56;18.00;99.90
8910;DHT22;4490;49.072;8.804;2023-09-19T00:05:23;18.00;99.90
8910;DHT22;4490;49.072;8.804;2023-09-19T00:07:56;18.00;99.90
8910;DHT22;4490;49.072;8.804;2023-09-19T00:10:27;18.00;99.90
8910;DHT22;4490;49.072;8.804;2023-09-19T00:12:57;18.00;99.90
8910;DHT22;4490;49.072;8.804;2023-09-19T00:15:26;18.00;99.90
8910;DHT22;4490;49.072;8.804;2023-09-19T00:17:55;18.00;99.90
8910;DHT22;4490;49.072;8.804;2023-09-19T00:20:21;17.90;99.90
8910;DHT22;4490;49.072;8.804;2023-09-19T00:22:49;17.90;99.90
8910;DHT22;4490;49.072;8.804;2023-09-19T00:25:19;17.90;99.90
8910;DHT22;4490;49.072;8.804;2023-09-19T00:27:45;17.90;99.90
8910;DHT22;4490;49.072;8.804;2023-09-19T00:30:13;17.90;99.90
8910;DHT22;4490;49.072;8.804;2023-09-19T00:32:45;17.90;99.90
8910;DHT22;4490;49.072;8.804;2023-09-19T00:35:15;17.90;99.90
8910;DHT22;4490;49.072;8.804;2023-09-19T00:37:41;17.90;99.90
8910;DHT22;4490;49.072;8.804;2023-09-19T00:40:08;17.80;99.90
8910;DHT22;4490;49.072;8.804;2023-09-19T00:42:46;17.80;99.90
8910;DHT22;4490;49.072;8.804;2023-09-19T00:45:14;17.80;99.90
8910;DHT22;4490;49.072;8.804;2023-09-19T00:47:48;17.80;99.90
8910;DHT22;4490;49.072;8.804;2023-09-19T00:50:16;17.80;99.90
8910;DHT22;4490;49.072;8.804;2023-09-19T00:52:43;17.80;99.90
8910;DHT22;4490;49.072;8.804;2023-09-19T00:55:10;17.80;99.90
8910;DHT22;4490;49.072;8.804;2023-09-19T00:57:37;17.80;99.90
8910;DHT22;4490;49.072;8.804;2023-09-19T01:00:05;17.80;99.90
8910;DHT22;4490;49.072;8.804;2023-09-19T01:02:36;17.80;99.90
8910;DHT22;4490;49.072;8.804;2023-09-19T01:05:02;17.80;99.90
8910;DHT22;4490;49.072;8.804;2023-09-19T01:07:30;17.80;99.90
8910;DHT22;4490;49.072;8.804;2023-09-19T01:09:57;17.80;99.90
8910;DHT22;4490;49.072;8.804;2023-09-19T01:12:44;17.80;99.90
8910;DHT22;4490;49.072;8.804;2023-09-19T01:15:21;17.80;99.90
8910;DHT22;4490;49.072;8.804;2023-09-19T01:21:08;17.90;99.90
8910;DHT22;4490;49.072;8.804;2023-09-19T01:31:59;17.90;99.90
8910;DHT22;4490;49.072;8.804;2023-09-19T01:34:46;17.80;99.90
8910;DHT22;4490;49.072;8.804;2023-09-19T01:37:13;17.90;99.90
8910;DHT22;4490;49.072;8.804;2023-09-19T01:40:04;17.90;99.90
8910;DHT22;4490;49.072;8.804;2023-09-19T01:42:59;17.80;99.90
8910;DHT22;4490;49.072;8.804;2023-09-19T01:45:59;17.90;99.90
8910;DHT22;4490;49.072;8.804;2023-09-19T01:51:11;17.90;99.90
8910;DHT22;4490;49.072;8.804;2023-09-19T01:53:45;17.90;99.90
8910;DHT22;4490;49.072;8.804;2023-09-19T01:56:25;17.90;99.90
8910;DHT22;4490;49.072;8.804;2023-09-19T01:58:56;18.00;99.90
8910;DHT22;4490;49.072;8.804;2023-09-19T02:01:25;17.90;99.90
8910;DHT22;4490;49.072;8.804;2023-09-19T02:03:52;18.00;99.90
8910;DHT22;4490;49.072;8.804;2023-09-19T02:06:18;18.00;99.90
8910;DHT22;4490;49.072;8.804;2023-09-19T02:08:44;18.00;99.90
8910;DHT22;4490;49.072;8.804;2023-09-19T02:11:11;18.00;99.90
8910;DHT22;4490;49.072;8.804;2023-09-19T02:13:37;18.00;99.90
8910;DHT22;4490;49.072;8.804;2023-09-19T02:16:03;18.00;99.90
8910;DHT22;4490;49.072;8.804;2023-09-19T02:18:30;18.10;99.90
8910;DHT22;4490;49.072;8.804;2023-09-19T02:20:56;18.10;99.90
8910;DHT22;4490;49.072;8.804;2023-09-19T02:23:24;18.10;99.90
8910;DHT22;4490;49.072;8.804;2023-09-19T02:25:53;18.10;99.90
8910;DHT22;4490;49.072;8.804;2023-09-19T02:28:20;18.20;99.90
8910;DHT22;4490;49.072;8.804;2023-09-19T02:30:49;18.20;99.90
8910;DHT22;4490;49.072;8.804;2023-09-19T02:33:15;18.20;99.90
8910;DHT22;4490;49.072;8.804;2023-09-19T02:35:42;18.30;99.90
8910;DHT22;4490;49.072;8.804;2023-09-19T02:38:08;18.20;99.90
8910;DHT22;4490;49.072;8.804;2023-09-19T02:40:36;18.20;99.90
8910;DHT22;4490;49.072;8.804;2023-09-19T02:43:02;18.20;99.90
8910;DHT22;4490;49.072;8.804;2023-09-19T02:45:28;18.30;99.90
8910;DHT22;4490;49.072;8.804;2023-09-19T02:47:55;18.30;99.90
8910;DHT22;4490;49.072;8.804;2023-09-19T02:50:26;18.30;99.90
8910;DHT22;4490;49.072;8.804;2023-09-19T02:52:52;18.30;99.90
8910;DHT22;4490;49.072;8.804;2023-09-19T02:55:18;18.30;99.90
8910;DHT22;4490;49.072;8.804;2023-09-19T02:57:49;18.40;99.90
8910;DHT22;4490;49.072;8.804;2023-09-19T03:00:15;18.40;99.90
8910;DHT22;4490;49.072;8.804;2023-09-19T03:02:41;18.40;99.90
8910;DHT22;4490;49.072;8.804;2023-09-19T03:05:08;18.40;99.90
8910;DHT22;4490;49.072;8.804;2023-09-19T03:07:36;18.50;99.90
8910;DHT22;4490;49.072;8.804;2023-09-19T03:10:05;18.40;99.90
8910;DHT22;4490;49.072;8.804;2023-09-19T03:12:31;18.40;99.90
8910;DHT22;4490;49.072;8.804;2023-09-19T03:14:57;18.50;99.90
8910;DHT22;4490;49.072;8.804;2023-09-19T03:17:22;18.50;99.90
8910;DHT22;4490;49.072;8.804;2023-09-19T03:19:48;18.50;99.90
8910;DHT22;4490;49.072;8.804;2023-09-19T03:22:14;18.40;99.90
8910;DHT22;4490;49.072;8.804;2023-09-19T03:24:41;18.50;99.90
8910;DHT22;4490;49.072;8.804;2023-09-19T03:27:09;18.50;99.90
8910;DHT22;4490;49.072;8.804;2023-09-19T03:29:35;18.50;99.90
8910;DHT22;4490;49.072;8.804;2023-09-19T03:32:01;18.50;99.90
8910;DHT22;4490;49.072;8.804;2023-09-19T03:34:27;18.40;99.90
8910;DHT22;4490;49.072;8.804;2023-09-19T03:36:52;18.40;99.90
8910;DHT22;4490;49.072;8.804;2023-09-19T03:39:18;18.40;99.90
8910;DHT22;4490;49.072;8.804;2023-09-19T03:41:44;18.50;99.90
8910;DHT22;4490;49.072;8.804;2023-09-19T03:44:10;18.40;99.90
8910;DHT22;4490;49.072;8.804;2023-09-19T03:46:36;18.40;99.90
8910;DHT22;4490;49.072;8.804;2023-09-19T03:49:02;18.30;99.90
8910;DHT22;4490;49.072;8.804;2023-09-19T03:51:28;18.30;99.90
8910;DHT22;4490;49.072;8.804;2023-09-19T03:53:53;18.30;99.90
8910;DHT22;4490;49.072;8.804;2023-09-19T03:56:19;18.30;99.90
8910;DHT22;4490;49.072;8.804;2023-09-19T03:58:44;18.30;99.90
8910;DHT22;4490;49.072;8.804;2023-09-19T04:01:10;18.20;99.90
8910;DHT22;4490;49.072;8.804;2023-09-19T04:03:36;18.20;99.90
8910;DHT22;4490;49.072;8.804;2023-09-19T04:06:15;18.20;99.90
8910;DHT22;4490;49.072;8.804;2023-09-19T04:08:41;18.10;99.90
8910;DHT22;4490;49.072;8.804;2023-09-19T04:11:07;18.10;99.90
8910;DHT22;4490;49.072;8.804;2023-09-19T04:13:33;18.10;99.90
8910;DHT22;4490;49.072;8.804;2023-09-19T04:15:59;18.00;99.90
8910;DHT22;4490;49.072;8.804;2023-09-19T04:18:25;18.00;99.90
8910;DHT22;4490;49.072;8.804;2023-09-19T04:20:50;18.00;99.90
8910;DHT22;4490;49.072;8.804;2023-09-19T04:23:16;18.00;99.90
8910;DHT22;4490;49.072;8.804;2023-09-19T04:25:48;18.00;99.90
8910;DHT22;4490;49.072;8.804;2023-09-19T04:28:14;18.00;99.90
8910;DHT22;4490;49.072;8.804;2023-09-19T04:30:40;18.00;99.90
8910;DHT22;4490;49.072;8.804;2023-09-19T04:33:06;18.00;99.90
8910;DHT22;4490;49.072;8.804;2023-09-19T04:35:32;18.00;99.90
8910;DHT22;4490;49.072;8.804;2023-09-19T04:37:58;18.00;99.90
8910;DHT22;4490;49.072;8.804;2023-09-19T04:40:23;18.00;99.90
8910;DHT22;4490;49.072;8.804;2023-09-19T04:42:56;18.00;99.90
8910;DHT22;4490;49.072;8.804;2023-09-19T04:45:26;18.00;99.90
8910;DHT22;4490;49.072;8.804;2023-09-19T04:47:52;18.00;99.90
8910;DHT22;4490;49.072;8.804;2023-09-19T04:50:18;18.00;99.90
8910;DHT22;4490;49.072;8.804;2023-09-19T04:52:44;18.00;99.90
8910;DHT22;4490;49.072;8.804;2023-09-19T04:55:12;18.00;99.90
8910;DHT22;4490;49.072;8.804;2023-09-19T04:57:45;18.00;99.90
8910;DHT22;4490;49.072;8.804;2023-09-19T05:00:12;18.00;99.90
8910;DHT22;4490;49.072;8.804;2023-09-19T05:02:40;18.00;99.90
8910;DHT22;4490;49.072;8.804;2023-09-19T05:05:07;18.00;99.90
8910;DHT22;4490;49.072;8.804;2023-09-19T05:07:34;18.00;99.90
8910;DHT22;4490;49.072;8.804;2023-09-19T05:10:00;18.00;99.90
8910;DHT22;4490;49.072;8.804;2023-09-19T05:12:26;18.00;99.90
8910;DHT22;4490;49.072;8.804;2023-09-19T05:14:52;18.00;99.90
8910;DHT22;4490;49.072;8.804;2023-09-19T05:17:18;18.00;99.90
8910;DHT22;4490;49.072;8.804;2023-09-19T05:19:44;18.00;99.90
8910;DHT22;4490;49.072;8.804;2023-09-19T05:22:11;18.00;99.90
8910;DHT22;4490;49.072;8.804;2023-09-19T05:24:38;18.00;99.90
8910;DHT22;4490;49.072;8.804;2023-09-19T05:27:04;18.00;99.90
8910;DHT22;4490;49.072;8.804;2023-09-19T05:29:32;18.10;99.90
8910;DHT22;4490;49.072;8.804;2023-09-19T05:31:59;18.00;99.90
8910;DHT22;4490;49.072;8.804;2023-09-19T05:34:25;18.00;99.90
8910;DHT22;4490;49.072;8.804;2023-09-19T05:36:55;18.00;99.90
8910;DHT22;4490;49.072;8.804;2023-09-19T05:39:21;18.10;99.90
8910;DHT22;4490;49.072;8.804;2023-09-19T05:41:48;18.10;99.90
8910;DHT22;4490;49.072;8.804;2023-09-19T05:44:13;18.10;99.90
8910;DHT22;4490;49.072;8.804;2023-09-19T05:46:42;18.10;99.90
8910;DHT22;4490;49.072;8.804;2023-09-19T05:49:07;18.10;99.90
8910;DHT22;4490;49.072;8.804;2023-09-19T05:51:33;18.10;99.90
8910;DHT22;4490;49.072;8.804;2023-09-19T05:54:00;18.10;99.90
8910;DHT22;4490;49.072;8.804;2023-09-19T05:56:26;18.10;99.90
8910;DHT22;4490;49.072;8.804;2023-09-19T05:58:52;18.10;99.90
8910;DHT22;4490;49.072;8.804;2023-09-19T06:01:19;18.00;99.90
8910;DHT22;4490;49.072;8.804;2023-09-19T06:03:44;18.10;99.90
8910;DHT22;4490;49.072;8.804;2023-09-19T06:06:10;18.10;99.90
8910;DHT22;4490;49.072;8.804;2023-09-19T06:08:35;18.10;99.90
8910;DHT22;4490;49.072;8.804;2023-09-19T06:11:01;18.10;99.90
8910;DHT22;4490;49.072;8.804;2023-09-19T06:13:30;18.10;99.90
8910;DHT22;4490;49.072;8.804;2023-09-19T06:15:59;18.10;99.90
8910;DHT22;4490;49.072;8.804;2023-09-19T06:18:28;18.10;99.90
8910;DHT22;4490;49.072;8.804;2023-09-19T06:20:55;18.10;99.90
8910;DHT22;4490;49.072;8.804;2023-09-19T06:23:21;18.10;99.90
8910;DHT22;4490;49.072;8.804;2023-09-19T06:25:47;18.20;99.90
8910;DHT22;4490;49.072;8.804;2023-09-19T06:28:12;18.20;99.90
8910;DHT22;4490;49.072;8.804;2023-09-19T06:30:38;18.20;99.90
8910;DHT22;4490;49.072;8.804;2023-09-19T06:33:07;18.20;99.90
8910;DHT22;4490;49.072;8.804;2023-09-19T06:35:33;18.20;99.90
8910;DHT22;4490;49.072;8.804;2023-09-19T06:38:02;18.30;99.90
8910;DHT22;4490;49.072;8.804;2023-09-19T06:40:28;18.30;99.90
8910;DHT22;4490;49.072;8.804;2023-09-19T06:42:54;18.30;99.90
8910;DHT22;4490;49.072;8.804;2023-09-19T06:45:21;18.30;99.90
8910;DHT22;4490;49.072;8.804;2023-09-19T06:47:49;18.30;99.90
8910;DHT22;4490;49.072;8.804;2023-09-19T06:50:20;18.30;99.90
8910;DHT22;4490;49.072;8.804;2023-09-19T06:52:48;18.30;99.90
8910;DHT22;4490;49.072;8.804;2023-09-19T06:55:16;18.30;99.90
8910;DHT22;4490;49.072;8.804;2023-09-19T06:57:45;18.30;99.90
8910;DHT22;4490;49.072;8.804;2023-09-19T07:00:11;18.30;99.90
8910;DHT22;4490;49.072;8.804;2023-09-19T07:03:00;18.30;99.90
8910;DHT22;4490;49.072;8.804;2023-09-19T07:05:30;18.30;99.90
8910;DHT22;4490;49.072;8.804;2023-09-19T07:07:59;18.30;99.90
8910;DHT22;4490;49.072;8.804;2023-09-19T07:10:28;18.30;99.90
8910;DHT22;4490;49.072;8.804;2023-09-19T07:13:01;18.30;99.90
8910;DHT22;4490;49.072;8.804;2023-09-19T07:15:27;18.30;99.90
8910;DHT22;4490;49.072;8.804;2023-09-19T07:17:54;18.40;99.90
8910;DHT22;4490;49.072;8.804;2023-09-19T07:20:21;18.40;99.90
8910;DHT22;4490;49.072;8.804;2023-09-19T07:22:48;18.50;99.90
8910;DHT22;4490;49.072;8.804;2023-09-19T07:25:16;18.50;99.90
8910;DHT22;4490;49.072;8.804;2023-09-19T07:27:42;18.50;99.90
8910;DHT22;4490;49.072;8.804;2023-09-19T07:30:08;18.60;99.90
8910;DHT22;4490;49.072;8.804;2023-09-19T07:32:34;18.70;99.90
8910;DHT22;4490;49.072;8.804;2023-09-19T07:35:04;18.70;99.90
8910;DHT22;4490;49.072;8.804;2023-09-19T07:37:31;18.70;99.90
8910;DHT22;4490;49.072;8.804;2023-09-19T07:39:59;18.70;99.90
8910;DHT22;4490;49.072;8.804;2023-09-19T07:42:26;18.80;99.90
8910;DHT22;4490;49.072;8.804;2023-09-19T07:44:52;18.80;99.90
8910;DHT22;4490;49.072;8.804;2023-09-19T07:47:20;18.80;99.90
8910;DHT22;4490;49.072;8.804;2023-09-19T07:49:47;19.00;99.90
8910;DHT22;4490;49.072;8.804;2023-09-19T07:52:13;19.20;99.90
8910;DHT22;4490;49.072;8.804;2023-09-19T07:54:39;19.50;99.90
8910;DHT22;4490;49.072;8.804;2023-09-19T07:57:07;19.70;99.90
8910;DHT22;4490;49.072;8.804;2023-09-19T07:59:32;19.90;99.90
8910;DHT22;4490;49.072;8.804;2023-09-19T08:01:58;20.10;99.90
8910;DHT22;4490;49.072;8.804;2023-09-19T08:04:24;20.30;99.90
8910;DHT22;4490;49.072;8.804;2023-09-19T08:06:51;20.40;99.90
8910;DHT22;4490;49.072;8.804;2023-09-19T08:09:17;20.60;99.90
8910;DHT22;4490;49.072;8.804;2023-09-19T08:11:47;20.70;99.90
8910;DHT22;4490;49.072;8.804;2023-09-19T08:14:13;20.70;99.90
8910;DHT22;4490;49.072;8.804;2023-09-19T08:16:40;20.80;99.90
8910;DHT22;4490;49.072;8.804;2023-09-19T08:19:05;20.80;99.90
8910;DHT22;4490;49.072;8.804;2023-09-19T08:21:31;20.80;98.60
8910;DHT22;4490;49.072;8.804;2023-09-19T08:23:57;20.90;98.00
8910;DHT22;4490;49.072;8.804;2023-09-19T08:26:23;20.90;96.40
8910;DHT22;4490;49.072;8.804;2023-09-19T08:28:50;20.90;96.30
8910;DHT22;4490;49.072;8.804;2023-09-19T08:31:17;20.90;95.30
8910;DHT22;4490;49.072;8.804;2023-09-19T08:33:43;20.80;95.40
8910;DHT22;4490;49.072;8.804;2023-09-19T08:36:15;20.90;95.60
8910;DHT22;4490;49.072;8.804;2023-09-19T08:38:41;21.00;96.20
8910;DHT22;4490;49.072;8.804;2023-09-19T08:41:07;21.10;96.00
8910;DHT22;4490;49.072;8.804;2023-09-19T08:43:34;21.20;96.10
8910;DHT22;4490;49.072;8.804;2023-09-19T08:46:15;21.40;96.40
8910;DHT22;4490;49.072;8.804;2023-09-19T08:48:49;21.70;94.90
8910;DHT22;4490;49.072;8.804;2023-09-19T08:51:42;21.90;92.90
8910;DHT22;4490;49.072;8.804;2023-09-19T08:54:21;22.10;92.30
8910;DHT22;4490;49.072;8.804;2023-09-19T08:56:49;22.30;92.10
8910;DHT22;4490;49.072;8.804;2023-09-19T08:59:15;22.40;91.50
8910;DHT22;4490;49.072;8.804;2023-09-19T09:01:42;22.50;90.60
8910;DHT22;4490;49.072;8.804;2023-09-19T09:04:09;22.60;90.50
8910;DHT22;4490;49.072;8.804;2023-09-19T09:06:38;22.70;87.90
8910;DHT22;4490;49.072;8.804;2023-09-19T09:09:05;22.60;86.20
8910;DHT22;4490;49.072;8.804;2023-09-19T09:11:33;22.60;86.20
8910;DHT22;4490;49.072;8.804;2023-09-19T09:13:59;22.50;85.80
8910;DHT22;4490;49.072;8.804;2023-09-19T09:16:24;22.50;85.20
8910;DHT22;4490;49.072;8.804;2023-09-19T09:18:51;22.50;85.30
8910;DHT22;4490;49.072;8.804;2023-09-19T09:21:20;22.50;84.10
8910;DHT22;4490;49.072;8.804;2023-09-19T09:23:48;22.30;83.40
8910;DHT22;4490;49.072;8.804;2023-09-19T09:26:15;22.10;83.30
8910;DHT22;4490;49.072;8.804;2023-09-19T09:28:45;21.90;83.30
8910;DHT22;4490;49.072;8.804;2023-09-19T09:31:23;22.00;83.60
8910;DHT22;4490;49.072;8.804;2023-09-19T09:33:56;22.10;83.10
8910;DHT22;4490;49.072;8.804;2023-09-19T09:36:39;22.40;83.70
8910;DHT22;4490;49.072;8.804;2023-09-19T09:39:07;22.70;81.50
8910;DHT22;4490;49.072;8.804;2023-09-19T09:41:44;22.90;82.70
8910;DHT22;4490;49.072;8.804;2023-09-19T09:44:16;23.30;81.20
8910;DHT22;4490;49.072;8.804;2023-09-19T09:46:43;23.60;78.50
8910;DHT22;4490;49.072;8.804;2023-09-19T09:49:22;23.90;78.60
8910;DHT22;4490;49.072;8.804;2023-09-19T09:52:03;24.20;75.60
8910;DHT22;4490;49.072;8.804;2023-09-19T09:54:33;24.40;75.00
8910;DHT22;4490;49.072;8.804;2023-09-19T09:57:06;24.30;75.10
8910;DHT22;4490;49.072;8.804;2023-09-19T10:02:16;24.60;76.00
8910;DHT22;4490;49.072;8.804;2023-09-19T10:04:48;24.70;75.30
8910;DHT22;4490;49.072;8.804;2023-09-19T10:07:28;24.90;72.40
8910;DHT22;4490;49.072;8.804;2023-09-19T10:09:59;25.00;71.70
8910;DHT22;4490;49.072;8.804;2023-09-19T10:12:31;25.10;70.70
8910;DHT22;4490;49.072;8.804;2023-09-19T10:15:00;25.00;70.20
8910;DHT22;4490;49.072;8.804;2023-09-19T10:17:29;25.00;71.10
8910;DHT22;4490;49.072;8.804;2023-09-19T10:19:57;25.10;70.60
8910;DHT22;4490;49.072;8.804;2023-09-19T10:22:26;25.20;70.40
8910;DHT22;4490;49.072;8.804;2023-09-19T10:24:53;25.20;69.90
8910;DHT22;4490;49.072;8.804;2023-09-19T10:27:20;25.10;69.80
8910;DHT22;4490;49.072;8.804;2023-09-19T10:29:48;25.10;71.10
8910;DHT22;4490;49.072;8.804;2023-09-19T10:32:16;25.00;70.20
8910;DHT22;4490;49.072;8.804;2023-09-19T10:34:46;25.10;71.10
8910;DHT22;4490;49.072;8.804;2023-09-19T10:37:13;25.10;69.70
8910;DHT22;4490;49.072;8.804;2023-09-19T10:39:40;25.10;69.50
8910;DHT22;4490;49.072;8.804;2023-09-19T10:42:06;25.00;69.80
8910;DHT22;4490;49.072;8.804;2023-09-19T10:44:38;24.90;70.10
8910;DHT22;4490;49.072;8.804;2023-09-19T10:47:08;25.00;70.70
8910;DHT22;4490;49.072;8.804;2023-09-19T10:49:34;25.00;70.10
8910;DHT22;4490;49.072;8.804;2023-09-19T10:52:01;25.10;70.20
8910;DHT22;4490;49.072;8.804;2023-09-19T10:54:31;25.20;69.80
8910;DHT22;4490;49.072;8.804;2023-09-19T10:56:58;25.40;69.20
8910;DHT22;4490;49.072;8.804;2023-09-19T10:59:25;25.50;69.40
8910;DHT22;4490;49.072;8.804;2023-09-19T11:01:55;25.70;68.00
8910;DHT22;4490;49.072;8.804;2023-09-19T11:04:26;25.80;68.60
8910;DHT22;4490;49.072;8.804;2023-09-19T11:07:05;26.00;68.40
8910;DHT22;4490;49.072;8.804;2023-09-19T11:14:55;25.80;67.80
8910;DHT22;4490;49.072;8.804;2023-09-19T11:30:48;25.30;67.90
8910;DHT22;4490;49.072;8.804;2023-09-19T11:36:14;25.40;66.80
8910;DHT22;4490;49.072;8.804;2023-09-19T11:43:49;25.30;67.00
8910;DHT22;4490;49.072;8.804;2023-09-19T11:46:20;25.20;66.50
8910;DHT22;4490;49.072;8.804;2023-09-19T11:48:49;25.20;67.40
8910;DHT22;4490;49.072;8.804;2023-09-19T11:51:23;25.00;67.40
8910;DHT22;4490;49.072;8.804;2023-09-19T11:53:56;24.90;67.00
8910;DHT22;4490;49.072;8.804;2023-09-19T11:56:24;24.90;67.40
8910;DHT22;4490;49.072;8.804;2023-09-19T11:58:53;25.10;67.40
8910;DHT22;4490;49.072;8.804;2023-09-19T12:01:30;25.20;68.10
8910;DHT22;4490;49.072;8.804;2023-09-19T12:04:00;25.40;67.70
8910;DHT22;4490;49.072;8.804;2023-09-19T12:06:27;25.60;67.40
8910;DHT22;4490;49.072;8.804;2023-09-19T12:08:55;25.90;66.70
8910;DHT22;4490;49.072;8.804;2023-09-19T12:11:21;26.10;66.20
8910;DHT22;4490;49.072;8.804;2023-09-19T12:13:49;26.40;65.60
8910;DHT22;4490;49.072;8.804;2023-09-19T12:16:19;26.50;64.90
8910;DHT22;4490;49.072;8.804;2023-09-19T12:18:49;26.80;64.80
8910;DHT22;4490;49.072;8.804;2023-09-19T12:21:30;27.00;64.50
8910;DHT22;4490;49.072;8.804;2023-09-19T12:26:30;27.40;62.80
8910;DHT22;4490;49.072;8.804;2023-09-19T12:29:03;27.60;62.40
8910;DHT22;4490;49.072;8.804;2023-09-19T12:31:30;27.80;62.60
8910;DHT22;4490;49.072;8.804;2023-09-19T12:34:01;27.90;62.40
8910;DHT22;4490;49.072;8.804;2023-09-19T12:36:27;28.10;61.50
8910;DHT22;4490;49.072;8.804;2023-09-19T12:38:59;28.20;60.90
8910;DHT22;4490;49.072;8.804;2023-09-19T12:41:25;28.20;60.00
8910;DHT22;4490;49.072;8.804;2023-09-19T12:43:55;28.30;59.70
8910;DHT22;4490;49.072;8.804;2023-09-19T12:46:24;28.30;59.70
8910;DHT22;4490;49.072;8.804;2023-09-19T12:49:20;28.40;59.60
8910;DHT22;4490;49.072;8.804;2023-09-19T12:51:49;28.40;58.00
8910;DHT22;4490;49.072;8.804;2023-09-19T12:54:15;28.40;58.20
8910;DHT22;4490;49.072;8.804;2023-09-19T12:56:43;28.40;58.50
8910;DHT22;4490;49.072;8.804;2023-09-19T12:59:14;28.40;58.50
8910;DHT22;4490;49.072;8.804;2023-09-19T13:01:41;28.40;58.40
8910;DHT22;4490;49.072;8.804;2023-09-19T13:04:21;28.40;59.00
8910;DHT22;4490;49.072;8.804;2023-09-19T13:06:57;28.60;58.80
8910;DHT22;4490;49.072;8.804;2023-09-19T13:09:27;28.90;59.00
8910;DHT22;4490;49.072;8.804;2023-09-19T13:12:04;29.10;58.30
8910;DHT22;4490;49.072;8.804;2023-09-19T13:14:32;29.20;57.60
8910;DHT22;4490;49.072;8.804;2023-09-19T13:17:08;29.20;57.30
8910;DHT22;4490;49.072;8.804;2023-09-19T13:19:46;29.20;56.90
8910;DHT22;4490;49.072;8.804;2023-09-19T13:22:40;29.20;57.00
8910;DHT22;4490;49.072;8.804;2023-09-19T13:25:16;29.30;56.40
8910;DHT22;4490;49.072;8.804;2023-09-19T13:27:52;29.40;56.70
8910;DHT22;4490;49.072;8.804;2023-09-19T13:30:20;29.40;55.70
8910;DHT22;4490;49.072;8.804;2023-09-19T13:32:47;29.40;56.00
8910;DHT22;4490;49.072;8.804;2023-09-19T13:35:13;29.50;56.10
8910;DHT22;4490;49.072;8.804;2023-09-19T13:37:40;29.50;55.90
8910;DHT22;4490;49.072;8.804;2023-09-19T13:40:14;29.60;55.90
8910;DHT22;4490;49.072;8.804;2023-09-19T13:42:40;29.80;55.90
8910;DHT22;4490;49.072;8.804;2023-09-19T13:45:07;29.90;56.20
8910;DHT22;4490;49.072;8.804;2023-09-19T13:47:33;29.90;56.30
8910;DHT22;4490;49.072;8.804;2023-09-19T13:49:59;30.00;55.50
8910;DHT22;4490;49.072;8.804;2023-09-19T13:52:26;30.20;55.50
8910;DHT22;4490;49.072;8.804;2023-09-19T13:54:54;30.20;55.50
8910;DHT22;4490;49.072;8.804;2023-09-19T13:57:22;30.10;54.20
8910;DHT22;4490;49.072;8.804;2023-09-19T13:59:47;29.90;54.40
8910;DHT22;4490;49.072;8.804;2023-09-19T14:02:13;29.80;54.20
8910;DHT22;4490;49.072;8.804;2023-09-19T14:04:39;29.70;54.90
8910;DHT22;4490;49.072;8.804;2023-09-19T14:07:06;29.60;54.90
8910;DHT22;4490;49.072;8.804;2023-09-19T14:09:32;29.50;54.70
8910;DHT22;4490;49.072;8.804;2023-09-19T14:11:59;29.30;54.70
8910;DHT22;4490;49.072;8.804;2023-09-19T14:14:25;29.20;54.50
8910;DHT22;4490;49.072;8.804;2023-09-19T14:16:51;29.10;54.80
8910;DHT22;4490;49.072;8.804;2023-09-19T14:19:20;29.10;55.20
8910;DHT22;4490;49.072;8.804;2023-09-19T14:21:46;29.10;55.70
8910;DHT22;4490;49.072;8.804;2023-09-19T14:24:17;29.10;55.30
8910;DHT22;4490;49.072;8.804;2023-09-19T14:26:43;29.00;54.50
8910;DHT22;4490;49.072;8.804;2023-09-19T14:29:09;28.80;54.20
8910;DHT22;4490;49.072;8.804;2023-09-19T14:31:37;28.70;54.80
8910;DHT22;4490;49.072;8.804;2023-09-19T14:34:05;28.50;54.90
8910;DHT22;4490;49.072;8.804;2023-09-19T14:36:31;28.40;55.50
8910;DHT22;4490;49.072;8.804;2023-09-19T14:38:58;28.20;56.10
8910;DHT22;4490;49.072;8.804;2023-09-19T14:41:24;28.10;55.90
8910;DHT22;4490;49.072;8.804;2023-09-19T14:43:51;27.90;55.80
8910;DHT22;4490;49.072;8.804;2023-09-19T14:46:18;27.70;55.70
8910;DHT22;4490;49.072;8.804;2023-09-19T14:48:45;27.60;56.40
8910;DHT22;4490;49.072;8.804;2023-09-19T14:51:12;27.40;56.70
8910;DHT22;4490;49.072;8.804;2023-09-19T14:53:39;27.30;57.00
8910;DHT22;4490;49.072;8.804;2023-09-19T14:56:08;27.10;57.20
8910;DHT22;4490;49.072;8.804;2023-09-19T14:58:34;27.00;57.50
8910;DHT22;4490;49.072;8.804;2023-09-19T15:01:07;26.80;57.80
8910;DHT22;4490;49.072;8.804;2023-09-19T15:03:33;26.80;57.60
8910;DHT22;4490;49.072;8.804;2023-09-19T15:06:02;26.70;57.70
8910;DHT22;4490;49.072;8.804;2023-09-19T15:08:28;26.70;57.90
8910;DHT22;4490;49.072;8.804;2023-09-19T15:10:53;26.60;58.00
8910;DHT22;4490;49.072;8.804;2023-09-19T15:13:19;26.60;57.70
8910;DHT22;4490;49.072;8.804;2023-09-19T15:15:45;26.40;57.80
8910;DHT22;4490;49.072;8.804;2023-09-19T15:18:13;26.30;58.10
8910;DHT22;4490;49.072;8.804;2023-09-19T15:20:45;26.10;58.40
8910;DHT22;4490;49.072;8.804;2023-09-19T15:23:12;26.00;59.50
8910;DHT22;4490;49.072;8.804;2023-09-19T15:25:38;25.90;59.40
8910;DHT22;4490;49.072;8.804;2023-09-19T15:28:06;25.80;59.60
8910;DHT22;4490;49.072;8.804;2023-09-19T15:30:37;25.70;59.90
8910;DHT22;4490;49.072;8.804;2023-09-19T15:33:03;25.70;59.70
8910;DHT22;4490;49.072;8.804;2023-09-19T15:35:29;25.60;60.00
8910;DHT22;4490;49.072;8.804;2023-09-19T15:37:55;25.50;60.00
8910;DHT22;4490;49.072;8.804;2023-09-19T15:40:21;25.50;60.00
8910;DHT22;4490;49.072;8.804;2023-09-19T15:42:49;25.40;59.90
8910;DHT22;4490;49.072;8.804;2023-09-19T15:45:15;25.30;59.90
8910;DHT22;4490;49.072;8.804;2023-09-19T15:47:42;25.30;60.50
8910;DHT22;4490;49.072;8.804;2023-09-19T15:50:08;25.30;61.50
8910;DHT22;4490;49.072;8.804;2023-09-19T15:52:41;25.20;60.80
8910;DHT22;4490;49.072;8.804;2023-09-19T15:55:08;25.10;60.90
8910;DHT22;4490;49.072;8.804;2023-09-19T15:57:37;25.00;61.10
8910;DHT22;4490;49.072;8.804;2023-09-19T16:00:05;24.90;61.30
8910;DHT22;4490;49.072;8.804;2023-09-19T16:02:38;24.90;61.70
8910;DHT22;4490;49.072;8.804;2023-09-19T16:05:04;24.80;62.10
8910;DHT22;4490;49.072;8.804;2023-09-19T16:07:31;24.80;62.30
8910;DHT22;4490;49.072;8.804;2023-09-19T16:09:57;24.70;62.50
8910;DHT22;4490;49.072;8.804;2023-09-19T16:12:24;24.70;62.80
8910;DHT22;4490;49.072;8.804;2023-09-19T16:14:50;24.70;63.10
8910;DHT22;4490;49.072;8.804;2023-09-19T16:17:15;24.60;63.10
8910;DHT22;4490;49.072;8.804;2023-09-19T16:19:41;24.60;63.20
8910;DHT22;4490;49.072;8.804;2023-09-19T16:22:09;24.50;63.40
8910;DHT22;4490;49.072;8.804;2023-09-19T16:24:35;24.50;63.80
8910;DHT22;4490;49.072;8.804;2023-09-19T16:27:00;24.40;63.90
8910;DHT22;4490;49.072;8.804;2023-09-19T16:29:26;24.40;64.20
8910;DHT22;4490;49.072;8.804;2023-09-19T16:31:52;24.40;64.70
8910;DHT22;4490;49.072;8.804;2023-09-19T16:34:18;24.30;64.50
8910;DHT22;4490;49.072;8.804;2023-09-19T16:36:43;24.30;65.00
8910;DHT22;4490;49.072;8.804;2023-09-19T16:39:09;24.20;65.40
8910;DHT22;4490;49.072;8.804;2023-09-19T16:41:36;24.20;65.50
8910;DHT22;4490;49.072;8.804;2023-09-19T16:44:02;24.20;65.70
8910;DHT22;4490;49.072;8.804;2023-09-19T16:46:32;24.10;65.80
8910;DHT22;4490;49.072;8.804;2023-09-19T16:48:59;24.00;66.10
8910;DHT22;4490;49.072;8.804;2023-09-19T16:51:25;24.00;66.50
8910;DHT22;4490;49.072;8.804;2023-09-19T16:53:51;24.00;66.80
8910;DHT22;4490;49.072;8.804;2023-09-19T16:56:18;24.00;67.20